createdAt,value
2019-03-16T00:02:21.484Z,0.40
2019-03-16T00:04:51.337Z,0.50
2019-03-16T00:07:32.500Z,0.50
2019-03-16T00:09:56.501Z,0.60
2019-03-16T00:12:25.825Z,0.47
2019-03-16T00:14:56.186Z,0.47
2019-03-16T00:17:25.488Z,0.50
2019-03-16T00:19:54.852Z,0.40
2019-03-16T00:22:24.212Z,0.53
2019-03-16T00:24:53.580Z,0.50
2019-03-16T00:27:22.928Z,0.40
2019-03-16T00:29:52.293Z,0.40
2019-03-16T00:32:22.269Z,0.40
2019-03-16T00:34:51.624Z,0.50
2019-03-16T00:37:21.095Z,0.50
2019-03-16T00:39:50.386Z,0.50
2019-03-16T00:42:19.824Z,0.50
2019-03-16T00:44:49.756Z,0.40
2019-03-16T00:47:19.083Z,0.53
2019-03-16T00:49:48.445Z,0.40
2019-03-16T00:52:17.726Z,0.30
2019-03-16T00:54:47.148Z,0.60
2019-03-16T00:57:16.552Z,0.50
2019-03-16T00:59:45.889Z,2.03
2019-03-16T01:02:26.552Z,0.40
2019-03-16T01:04:44.688Z,0.30
2019-03-16T01:07:13.960Z,0.50
2019-03-16T01:09:46.190Z,0.50
2019-03-16T01:12:15.545Z,0.40
2019-03-16T01:14:44.823Z,0.50
2019-03-16T01:17:14.157Z,0.50
2019-03-16T01:19:43.773Z,0.53
2019-03-16T01:22:13.216Z,0.30
2019-03-16T01:24:43.639Z,0.50
2019-03-16T01:27:12.957Z,0.50
2019-03-16T01:29:42.324Z,0.40
2019-03-16T01:32:11.685Z,0.60
2019-03-16T01:34:44.007Z,0.50
2019-03-16T01:37:10.464Z,0.37
2019-03-16T01:39:39.773Z,0.60
2019-03-16T01:42:09.140Z,0.40
2019-03-16T01:44:38.494Z,0.40
2019-03-16T01:47:07.961Z,0.40
2019-03-16T01:49:38.254Z,0.40
2019-03-16T01:52:07.530Z,0.40
2019-03-16T01:54:37.011Z,0.43
2019-03-16T01:57:06.361Z,0.50
2019-03-16T01:59:35.751Z,0.50
2019-03-16T02:02:05.181Z,0.50
2019-03-16T02:04:34.483Z,0.60
2019-03-16T02:07:03.908Z,0.70
2019-03-16T02:09:33.236Z,0.50
2019-03-16T02:12:02.569Z,0.47
2019-03-16T02:14:31.940Z,0.53
2019-03-16T02:17:01.334Z,0.60
2019-03-16T02:19:31.665Z,0.60
2019-03-16T02:22:01.126Z,0.60
2019-03-16T02:24:31.447Z,0.50
2019-03-16T02:27:00.759Z,0.60
2019-03-16T02:29:30.723Z,0.50
2019-03-16T02:32:00.079Z,0.57
2019-03-16T02:34:29.464Z,0.60
2019-03-16T02:36:59.093Z,0.60
2019-03-16T02:39:28.517Z,0.43
2019-03-16T02:41:58.005Z,0.40
2019-03-16T02:44:27.375Z,0.60
2019-03-16T02:46:56.730Z,0.60
2019-03-16T02:49:26.049Z,0.60
2019-03-16T02:51:55.444Z,0.60
2019-03-16T02:54:24.797Z,0.60
2019-03-16T02:56:54.800Z,0.40
2019-03-16T02:59:24.126Z,0.70
2019-03-16T03:01:53.439Z,0.50
2019-03-16T03:04:22.752Z,0.57
2019-03-16T03:06:52.089Z,0.50
2019-03-16T03:09:21.988Z,0.60
2019-03-16T03:11:51.343Z,0.60
2019-03-16T03:14:20.679Z,0.47
2019-03-16T03:16:51.354Z,0.70
2019-03-16T03:19:20.736Z,0.50
2019-03-16T03:21:50.146Z,0.90
2019-03-16T03:24:20.492Z,0.70
2019-03-16T03:26:49.828Z,0.63
2019-03-16T03:29:19.324Z,0.80
2019-03-16T03:31:49.241Z,0.60
2019-03-16T03:40:18.376Z,0.50
2019-03-16T03:42:48.088Z,0.60
2019-03-16T03:45:17.585Z,0.70
2019-03-16T03:47:46.956Z,0.77
2019-03-16T03:50:16.320Z,0.70
2019-03-16T03:52:45.937Z,0.50
2019-03-16T03:55:15.336Z,0.70
2019-03-16T03:57:44.636Z,0.70
2019-03-16T04:00:14.219Z,0.60
2019-03-16T04:02:43.565Z,0.60
2019-03-16T04:05:12.997Z,0.67
2019-03-16T04:07:42.472Z,0.60
2019-03-16T04:10:11.867Z,0.70
2019-03-16T04:12:41.189Z,0.70
2019-03-16T04:15:10.665Z,0.70
2019-03-16T04:17:40.897Z,0.80
2019-03-16T04:20:10.417Z,0.70
2019-03-16T04:22:39.742Z,0.80
2019-03-16T04:25:09.156Z,0.90
2019-03-16T04:27:38.487Z,0.60
2019-03-16T04:30:07.929Z,0.60
2019-03-16T04:32:37.248Z,0.87
2019-03-16T04:35:06.741Z,0.60
2019-03-16T04:37:36.143Z,0.70
2019-03-16T04:40:05.591Z,0.80
2019-03-16T04:42:34.877Z,0.70
2019-03-16T04:45:04.361Z,0.70
2019-03-16T04:47:33.638Z,0.50
2019-03-16T04:50:02.994Z,0.90
2019-03-16T04:52:33.585Z,0.77
2019-03-16T04:55:03.942Z,0.60
2019-03-16T04:57:33.308Z,0.70
2019-03-16T05:00:02.812Z,0.63
2019-03-16T05:02:32.157Z,0.60
2019-03-16T05:05:01.540Z,0.70
2019-03-16T05:07:32.616Z,0.60
2019-03-16T05:10:02.087Z,0.60
2019-03-16T05:12:32.359Z,0.90
2019-03-16T05:15:01.996Z,0.90
2019-03-16T05:17:31.473Z,0.77
2019-03-16T05:20:00.820Z,0.70
2019-03-16T05:22:30.188Z,0.60
2019-03-16T05:24:59.550Z,0.70
2019-03-16T05:27:29.967Z,0.80
2019-03-16T05:29:59.328Z,0.87
2019-03-16T05:32:28.645Z,0.60
2019-03-16T05:34:57.934Z,0.93
2019-03-16T05:37:27.253Z,0.70
2019-03-16T05:39:56.632Z,0.80
2019-03-16T05:42:25.944Z,0.93
2019-03-16T05:44:56.255Z,0.80
2019-03-16T05:47:25.646Z,0.70
2019-03-16T05:49:54.947Z,0.60
2019-03-16T05:52:24.280Z,0.80
2019-03-16T05:54:53.609Z,0.70
2019-03-16T05:57:22.984Z,0.80
2019-03-16T05:59:52.326Z,1.00
2019-03-16T06:02:22.496Z,0.60
2019-03-16T06:04:51.872Z,0.50
2019-03-16T06:07:21.152Z,0.73
2019-03-16T06:09:50.449Z,0.90
2019-03-16T06:12:19.853Z,0.50
2019-03-16T06:14:49.345Z,0.70
2019-03-16T06:17:18.704Z,0.77
2019-03-16T06:19:48.020Z,0.77
2019-03-16T06:22:17.356Z,1.00
2019-03-16T06:24:46.769Z,0.70
2019-03-16T06:27:16.072Z,1.00
2019-03-16T06:29:46.274Z,0.80
2019-03-16T06:32:15.763Z,0.80
2019-03-16T06:34:46.686Z,0.87
2019-03-16T06:37:17.014Z,0.87
2019-03-16T06:39:46.990Z,0.80
2019-03-16T06:42:16.299Z,0.80
2019-03-16T06:44:46.181Z,1.20
2019-03-16T06:47:16.024Z,2.10
2019-03-16T06:49:45.501Z,2.50
2019-03-16T06:52:14.778Z,2.33
2019-03-16T06:54:44.099Z,3.00
2019-03-16T06:57:13.420Z,3.50
2019-03-16T06:59:42.759Z,3.27
2019-03-16T07:02:12.077Z,3.43
2019-03-16T07:04:41.364Z,3.50
2019-03-16T07:07:10.747Z,3.33
2019-03-16T07:09:40.140Z,3.30
2019-03-16T07:12:09.439Z,3.60
2019-03-16T07:14:38.835Z,3.40
2019-03-16T07:17:08.307Z,3.47
2019-03-16T07:19:37.626Z,2.87
2019-03-16T07:22:07.012Z,3.30
2019-03-16T07:24:37.316Z,3.13
2019-03-16T07:27:06.669Z,2.47
2019-03-16T07:29:36.036Z,2.60
2019-03-16T07:32:05.352Z,2.53
2019-03-16T07:34:34.738Z,2.20
2019-03-16T07:37:04.084Z,2.40
2019-03-16T07:39:33.428Z,2.10
2019-03-16T07:42:02.851Z,2.77
2019-03-16T07:44:33.017Z,2.30
2019-03-16T07:47:02.344Z,2.30
2019-03-16T07:49:31.719Z,2.37
2019-03-16T07:52:01.068Z,2.13
2019-03-16T07:54:31.337Z,1.70
2019-03-16T07:57:00.500Z,2.10
2019-03-16T07:59:29.821Z,2.10
2019-03-16T08:01:59.128Z,2.07
2019-03-16T08:04:28.541Z,2.27
2019-03-16T08:06:57.846Z,2.07
2019-03-16T08:09:27.193Z,2.10
2019-03-16T08:11:56.652Z,2.00
2019-03-16T08:14:26.008Z,2.27
2019-03-16T08:16:56.472Z,2.57
2019-03-16T08:19:25.790Z,2.50
2019-03-16T08:21:55.947Z,2.60
2019-03-16T08:24:25.749Z,2.50
2019-03-16T08:26:55.067Z,2.27
2019-03-16T08:29:24.443Z,2.57
2019-03-16T08:31:53.724Z,2.60
2019-03-16T08:34:23.040Z,2.33
2019-03-16T08:36:52.377Z,2.40
2019-03-16T08:39:21.675Z,2.53
2019-03-16T08:41:51.006Z,2.80
2019-03-16T08:44:20.474Z,2.30
2019-03-16T08:46:49.867Z,2.70
2019-03-16T08:49:19.208Z,2.53
2019-03-16T08:51:48.550Z,2.57
2019-03-16T08:54:17.925Z,2.50
2019-03-16T08:56:47.242Z,2.43
2019-03-16T08:59:16.629Z,2.53
2019-03-16T09:01:46.738Z,2.60
2019-03-16T09:04:16.039Z,2.60
2019-03-16T09:06:45.321Z,3.27
2019-03-16T09:09:14.814Z,2.40
2019-03-16T09:11:44.380Z,2.50
2019-03-16T09:14:14.473Z,2.30
2019-03-16T09:16:44.001Z,2.57
2019-03-16T09:19:13.367Z,2.47
2019-03-16T09:21:43.211Z,2.40
2019-03-16T09:24:12.586Z,2.53
2019-03-16T09:26:41.931Z,2.30
2019-03-16T09:29:15.251Z,2.23
2019-03-16T09:31:40.568Z,2.50
2019-03-16T09:34:09.869Z,2.20
2019-03-16T09:36:39.192Z,2.77
2019-03-16T09:39:09.177Z,2.60
2019-03-16T09:41:38.467Z,2.40
2019-03-16T09:44:07.755Z,2.60
2019-03-16T09:46:38.097Z,2.60
2019-03-16T09:49:07.416Z,2.70
2019-03-16T09:51:36.744Z,2.60
2019-03-16T09:54:06.627Z,2.40
2019-03-16T09:56:36.003Z,2.40
2019-03-16T09:59:05.472Z,1.80
2019-03-16T10:01:34.828Z,1.90
2019-03-16T10:04:04.206Z,1.73
2019-03-16T10:06:33.516Z,1.77
2019-03-16T10:09:02.798Z,1.90
2019-03-16T10:11:32.118Z,1.80
2019-03-16T10:14:07.631Z,1.67
2019-03-16T10:16:37.620Z,1.50
2019-03-16T10:19:06.997Z,1.80
2019-03-16T10:21:36.415Z,1.30
2019-03-16T10:24:12.285Z,1.43
2019-03-16T10:26:41.679Z,1.40
2019-03-16T10:29:11.069Z,1.37
2019-03-16T10:31:40.385Z,1.40
2019-03-16T10:34:09.712Z,1.37
2019-03-16T10:36:39.349Z,1.50
2019-03-16T10:39:09.727Z,1.23
2019-03-16T10:41:39.941Z,1.30
2019-03-16T10:44:09.336Z,1.33
2019-03-16T10:46:38.668Z,1.50
2019-03-16T10:49:08.037Z,1.80
2019-03-16T10:51:37.514Z,2.00
2019-03-16T10:54:06.860Z,1.90
2019-03-16T10:56:36.232Z,1.70
2019-03-16T10:59:05.516Z,1.80
2019-03-16T11:01:34.877Z,1.50
2019-03-16T11:04:04.172Z,1.80
2019-03-16T11:06:33.497Z,1.53
2019-03-16T11:09:02.829Z,0.97
2019-03-16T11:11:32.180Z,1.30
2019-03-16T11:14:01.575Z,0.90
2019-03-16T11:16:30.940Z,1.10
2019-03-16T11:19:00.316Z,0.83
2019-03-16T11:21:31.799Z,0.90
2019-03-16T11:24:01.209Z,1.00
2019-03-16T11:26:30.605Z,1.40
2019-03-16T11:29:08.541Z,1.20
2019-03-16T11:31:29.303Z,1.20
2019-03-16T11:33:58.628Z,1.30
2019-03-16T11:36:28.487Z,1.37
2019-03-16T11:38:57.842Z,1.70
2019-03-16T11:41:27.179Z,1.33
2019-03-16T11:43:57.184Z,1.50
2019-03-16T11:46:27.396Z,1.37
2019-03-16T11:48:56.743Z,1.10
2019-03-16T11:51:26.115Z,1.37
2019-03-16T11:53:55.553Z,1.20
2019-03-16T11:56:24.928Z,1.17
2019-03-16T11:58:54.328Z,1.33
2019-03-16T12:01:23.718Z,1.00
2019-03-16T12:03:53.055Z,0.77
2019-03-16T12:06:22.340Z,0.97
2019-03-16T12:08:52.200Z,0.70
2019-03-16T12:11:21.494Z,0.60
2019-03-16T12:13:50.793Z,0.80
2019-03-16T12:16:20.058Z,0.80
2019-03-16T12:18:49.499Z,0.60
2019-03-16T12:21:18.856Z,0.90
2019-03-16T12:23:48.501Z,0.70
2019-03-16T12:26:20.189Z,0.60
2019-03-16T12:28:47.991Z,0.60
2019-03-16T12:31:17.356Z,0.50
2019-03-16T12:33:47.676Z,0.50
2019-03-16T12:36:17.036Z,0.60
2019-03-16T12:38:46.428Z,0.90
2019-03-16T12:41:15.971Z,0.90
2019-03-16T12:43:45.216Z,0.53
2019-03-16T12:46:15.179Z,0.57
2019-03-16T12:48:44.529Z,0.53
2019-03-16T12:51:13.905Z,0.70
2019-03-16T12:53:43.248Z,0.80
2019-03-16T12:56:12.700Z,0.90
2019-03-16T12:58:42.117Z,0.77
2019-03-16T13:01:12.667Z,0.80
2019-03-16T13:03:40.776Z,1.27
2019-03-16T13:06:10.107Z,1.43
2019-03-16T13:08:39.438Z,1.40
2019-03-16T13:11:08.779Z,1.47
2019-03-16T13:13:38.153Z,1.50
2019-03-16T13:16:07.496Z,1.50
2019-03-16T13:18:36.875Z,1.40
2019-03-16T13:21:06.228Z,1.20
2019-03-16T13:23:35.549Z,1.30
2019-03-16T13:26:04.989Z,1.00
2019-03-16T13:28:35.699Z,1.03
2019-03-16T13:31:04.285Z,1.07
2019-03-16T13:33:33.576Z,0.90
2019-03-16T13:36:02.932Z,0.90
2019-03-16T13:38:32.198Z,1.10
2019-03-16T13:41:01.624Z,1.00
2019-03-16T13:43:30.938Z,1.00
2019-03-16T13:46:00.234Z,1.10
2019-03-16T13:48:29.736Z,1.40
2019-03-16T13:50:59.013Z,1.40
2019-03-16T13:53:28.393Z,1.40
2019-03-16T13:55:57.765Z,1.23
2019-03-16T13:58:27.166Z,1.67
2019-03-16T14:00:57.480Z,1.30
2019-03-16T14:03:27.008Z,1.13
2019-03-16T14:05:57.142Z,1.37
2019-03-16T14:08:26.563Z,1.50
2019-03-16T14:10:55.896Z,1.60
2019-03-16T14:13:25.197Z,1.30
2019-03-16T14:15:54.559Z,1.50
2019-03-16T14:18:24.608Z,1.63
2019-03-16T14:20:53.981Z,1.30
2019-03-16T14:23:23.290Z,1.40
2019-03-16T14:25:52.595Z,1.30
2019-03-16T14:28:21.912Z,1.10
2019-03-16T14:30:51.286Z,1.07
2019-03-16T14:33:20.772Z,1.10
2019-03-16T14:35:50.072Z,1.30
2019-03-16T14:38:19.383Z,1.07
2019-03-16T14:40:48.722Z,1.00
2019-03-16T14:43:17.991Z,1.10
2019-03-16T14:45:48.979Z,1.10
2019-03-16T14:48:17.376Z,1.00
2019-03-16T14:50:46.767Z,1.10
2019-03-16T14:53:16.060Z,1.10
2019-03-16T14:55:45.416Z,1.20
2019-03-16T14:58:14.878Z,1.10
2019-03-16T15:00:44.197Z,1.10
2019-03-16T15:03:13.930Z,1.30
2019-03-16T15:05:45.812Z,1.20
2019-03-16T15:08:12.697Z,1.10
2019-03-16T15:10:42.004Z,1.30
2019-03-16T15:13:11.382Z,1.00
2019-03-16T15:15:40.789Z,1.13
2019-03-16T15:18:10.231Z,1.40
2019-03-16T15:20:39.644Z,1.30
2019-03-16T15:23:09.262Z,1.20
2019-03-16T15:25:38.593Z,1.37
2019-03-16T15:28:07.892Z,1.30
2019-03-16T15:30:49.827Z,1.10
2019-03-16T15:33:06.558Z,1.80
2019-03-16T15:35:35.952Z,1.50
2019-03-16T15:38:05.439Z,1.30
2019-03-16T15:40:34.768Z,1.40
2019-03-16T15:43:04.345Z,1.20
2019-03-16T15:45:33.729Z,1.20
2019-03-16T15:48:03.051Z,1.40
2019-03-16T15:50:33.437Z,1.50
2019-03-16T15:53:03.676Z,1.30
2019-03-16T15:55:33.104Z,1.60
2019-03-16T15:58:07.845Z,1.00
2019-03-16T16:00:31.812Z,0.90
2019-03-16T16:03:01.125Z,1.17
2019-03-16T16:05:30.996Z,0.93
2019-03-16T16:08:00.412Z,0.90
2019-03-16T16:10:29.743Z,1.10
2019-03-16T16:12:59.069Z,0.90
2019-03-16T16:15:28.405Z,1.10
2019-03-16T16:17:57.886Z,1.00
2019-03-16T16:20:27.225Z,0.93
2019-03-16T16:22:56.573Z,1.13
2019-03-16T16:25:25.917Z,1.00
2019-03-16T16:27:55.240Z,0.90
2019-03-16T16:30:24.573Z,0.90
2019-03-16T16:32:53.945Z,1.00
2019-03-16T16:35:23.296Z,1.00
2019-03-16T16:37:52.675Z,1.00
2019-03-16T16:40:22.095Z,1.20
2019-03-16T16:42:51.446Z,1.00
2019-03-16T16:45:20.802Z,1.13
2019-03-16T16:47:50.144Z,1.40
2019-03-16T16:50:19.442Z,1.07
2019-03-16T16:52:48.853Z,0.90
2019-03-16T16:55:18.248Z,1.00
2019-03-16T16:57:47.602Z,1.13
2019-03-16T17:00:17.437Z,1.20
2019-03-16T17:02:46.741Z,1.60
2019-03-16T17:05:16.211Z,1.77
2019-03-16T17:07:45.494Z,1.10
2019-03-16T17:10:15.851Z,1.37
2019-03-16T17:12:45.258Z,1.40
2019-03-16T17:15:14.642Z,1.50
2019-03-16T17:17:44.978Z,1.27
2019-03-16T17:20:14.398Z,1.20
2019-03-16T17:22:44.481Z,1.23
2019-03-16T17:25:13.855Z,1.10
2019-03-16T17:27:43.356Z,1.40
2019-03-16T17:30:15.765Z,1.30
2019-03-16T17:32:45.617Z,1.33
2019-03-16T17:35:14.984Z,1.13
2019-03-16T17:37:44.305Z,1.13
2019-03-16T17:40:13.920Z,1.50
2019-03-16T17:42:43.836Z,1.80
2019-03-16T17:45:13.222Z,1.30
2019-03-16T17:47:43.453Z,1.30
2019-03-16T17:50:12.893Z,1.83
2019-03-16T17:52:42.287Z,1.10
2019-03-16T17:55:11.897Z,1.30
2019-03-16T17:57:41.276Z,1.00
2019-03-16T18:00:12.454Z,1.90
2019-03-16T18:02:51.441Z,1.63
2019-03-16T18:05:11.234Z,1.40
2019-03-16T18:07:40.585Z,1.30
2019-03-16T18:10:10.628Z,1.60
2019-03-16T18:12:40.086Z,2.47
2019-03-16T18:15:12.062Z,1.30
2019-03-16T18:17:41.183Z,2.17
2019-03-16T18:20:13.645Z,1.30
2019-03-16T18:22:43.084Z,1.17
2019-03-16T18:25:12.496Z,1.87
2019-03-16T18:27:42.868Z,1.70
2019-03-16T18:30:14.344Z,2.23
2019-03-16T18:32:43.746Z,1.20
2019-03-16T18:35:13.089Z,1.27
2019-03-16T18:37:42.462Z,1.40
2019-03-16T18:40:12.292Z,1.50
2019-03-16T18:42:42.263Z,1.47
2019-03-16T18:45:14.228Z,1.50
2019-03-16T18:47:44.864Z,1.80
2019-03-16T18:50:14.191Z,1.43
2019-03-16T18:52:43.626Z,1.30
2019-03-16T18:55:13.104Z,1.43
2019-03-16T18:57:43.067Z,1.47
2019-03-16T19:00:13.592Z,1.80
2019-03-16T19:02:42.948Z,3.60
2019-03-16T19:05:12.367Z,1.90
2019-03-16T19:07:41.690Z,1.97
2019-03-16T19:10:11.877Z,1.80
2019-03-16T19:12:41.259Z,1.53
2019-03-16T19:15:13.037Z,1.83
2019-03-16T19:17:42.472Z,2.17
2019-03-16T19:20:12.664Z,2.40
2019-03-16T19:22:42.492Z,2.63
2019-03-16T19:25:13.472Z,2.00
2019-03-16T19:27:42.907Z,1.60
2019-03-16T19:30:14.138Z,1.73
2019-03-16T19:32:43.943Z,1.87
2019-03-16T19:35:13.473Z,1.97
2019-03-16T19:37:42.795Z,1.73
2019-03-16T19:40:12.345Z,1.83
2019-03-16T19:42:41.788Z,2.07
2019-03-16T19:45:11.318Z,1.80
2019-03-16T19:47:40.664Z,2.13
2019-03-16T19:50:10.883Z,1.90
2019-03-16T19:52:40.190Z,1.97
2019-03-16T19:55:09.835Z,1.80
2019-03-16T19:57:39.202Z,1.70
2019-03-16T20:00:11.398Z,3.80
2019-03-16T20:02:47.187Z,1.73
2019-03-16T20:05:10.344Z,1.40
2019-03-16T20:07:39.677Z,1.50
2019-03-16T20:10:10.841Z,1.87
2019-03-16T20:12:40.224Z,1.60
2019-03-16T20:15:10.190Z,1.60
2019-03-16T20:17:39.559Z,1.80
2019-03-16T20:20:09.742Z,1.50
2019-03-16T20:22:39.802Z,1.60
2019-03-16T20:25:09.266Z,1.50
2019-03-16T20:27:38.802Z,1.90
2019-03-16T20:30:09.189Z,2.07
2019-03-16T20:32:38.445Z,2.20
2019-03-16T20:35:07.939Z,1.23
2019-03-16T20:37:37.441Z,1.53
2019-03-16T20:40:08.970Z,1.80
2019-03-16T20:42:38.323Z,1.53
2019-03-16T20:45:07.836Z,1.90
2019-03-16T20:47:37.205Z,1.70
2019-03-16T20:50:07.674Z,1.90
2019-03-16T20:52:37.072Z,1.50
2019-03-16T20:55:07.278Z,1.60
2019-03-16T20:57:36.612Z,1.70
2019-03-16T21:00:06.927Z,1.40
2019-03-16T21:02:36.319Z,1.60
2019-03-16T21:05:06.863Z,1.53
2019-03-16T21:07:36.829Z,1.97
2019-03-16T21:10:07.290Z,1.60
2019-03-16T21:12:36.624Z,1.40
2019-03-16T21:15:07.467Z,1.80
2019-03-16T21:17:36.815Z,1.20
2019-03-16T21:20:07.823Z,1.70
2019-03-16T21:22:39.125Z,1.60
2019-03-16T21:25:07.175Z,1.67
2019-03-16T21:27:36.430Z,1.40
2019-03-16T21:30:07.663Z,1.67
2019-03-16T21:32:36.873Z,1.83
2019-03-16T21:35:06.457Z,1.47
2019-03-16T21:37:35.860Z,1.83
2019-03-16T21:40:06.224Z,1.57
2019-03-16T21:42:35.575Z,1.40
2019-03-16T21:45:05.248Z,1.57
2019-03-16T21:47:34.589Z,1.70
2019-03-16T21:50:04.226Z,1.50
2019-03-16T21:52:33.686Z,1.40
2019-03-16T21:55:03.127Z,1.50
2019-03-16T21:57:34.603Z,1.60
2019-03-16T22:00:04.596Z,1.60
2019-03-16T22:02:34.013Z,1.70
2019-03-16T22:05:03.368Z,1.70
2019-03-16T22:07:32.732Z,1.90
2019-03-16T22:10:01.995Z,1.70
2019-03-16T22:12:31.582Z,2.20
2019-03-16T22:15:00.860Z,1.87
2019-03-16T22:17:30.184Z,1.97
2019-03-16T22:19:59.476Z,1.60
2019-03-16T22:22:29.117Z,1.60
2019-03-16T22:24:58.556Z,1.80
2019-03-16T22:27:28.210Z,1.80
2019-03-16T22:29:58.588Z,1.90
2019-03-16T22:32:27.880Z,2.07
2019-03-16T22:34:57.308Z,1.77
2019-03-16T22:37:27.131Z,1.90
2019-03-16T22:39:57.140Z,1.90
2019-03-16T22:42:26.513Z,1.87
2019-03-16T22:44:55.866Z,1.73
2019-03-16T22:47:25.188Z,2.03
2019-03-16T22:49:54.511Z,1.80
2019-03-16T22:52:23.875Z,1.73
2019-03-16T22:54:53.516Z,1.70
2019-03-16T22:57:22.828Z,2.00
2019-03-16T22:59:52.436Z,1.83
2019-03-16T23:02:21.840Z,1.70
2019-03-16T23:04:52.185Z,1.87
2019-03-16T23:07:21.548Z,2.10
2019-03-16T23:09:50.864Z,1.70
2019-03-16T23:12:20.452Z,1.97
2019-03-16T23:14:50.460Z,1.80
2019-03-16T23:17:19.807Z,1.80
2019-03-16T23:19:49.578Z,1.77
2019-03-16T23:22:18.966Z,1.70
2019-03-16T23:24:48.340Z,1.70
2019-03-16T23:27:17.683Z,1.73
2019-03-16T23:29:46.967Z,2.10
2019-03-16T23:32:16.256Z,1.80
2019-03-16T23:34:45.555Z,1.50
2019-03-16T23:37:15.489Z,1.80
2019-03-16T23:39:44.793Z,1.80
2019-03-16T23:42:14.171Z,1.70
2019-03-16T23:44:43.528Z,1.83
2019-03-16T23:47:12.814Z,1.60
2019-03-16T23:49:42.659Z,1.70
2019-03-16T23:52:11.975Z,2.03
2019-03-16T23:54:41.336Z,1.83
2019-03-16T23:57:10.651Z,1.80
2019-03-16T23:59:39.932Z,2.00
